• Join FlightAware (Why Join?)
  • Login
  • US Flag 
12:02AM EST


 

Airport Tracker/Info


-or-


 

Live Flight TrackerFlight Track Log ✈ N1BN ✈ 24-May-2013 ✈ KSJC - KTEB

Flight Track Log - Related Links

Times and Time Zones

All times are in EDT time to prevent confusion due to time zone crossing. See the N1BN flight status page for this flight to view local times or setup timezone preferences in your user account.

Time Position Orientation Groundspeed Altitude Reporting Facility
EDT Latitude Longitude Course Direction KTS MPH feet Rate Location/Type
03:46PM 37.3939 -121.9631 58° Northeast 189 217 3,500  Level Oakland Center
03:47PM 37.4167 -121.9167 58° Northeast 250 288 5,100 1,560 Climbing Northern Cal TRACON
03:48PM 37.3500 -121.8500 142° Southeast 284 327 6,700 2,820 Climbing Northern Cal TRACON
03:49PM 37.2831 -121.8528 182° South 312 359 11,300 3,600 Climbing Oakland Center
03:50PM 37.3342 -121.9308 309° West 332 382 14,200 3,000 Climbing Oakland Center
03:51PM 37.4325 -121.8764 24° Northeast 382 440 17,500 2,280 Climbing Oakland Center
03:52PM 37.5108 -121.7736 46° Northeast 403 464 19,000 1,560 Climbing Oakland Center
03:53PM 37.5911 -121.6644 47° Northeast 420 483 20,700 2,460 Climbing Oakland Center
03:54PM 37.6914 -121.5289 47° Northeast 440 506 24,100 2,640 Climbing Oakland Center
03:55PM 37.7675 -121.4258 47° Northeast 458 527 26,200 2,280 Climbing Oakland Center
03:56PM 37.8767 -121.2753 47° Northeast 481 554 28,900 2,280 Climbing Oakland Center
03:57PM 37.9719 -121.1444 47° Northeast 503 579 30,900 1,860 Climbing Oakland Center
03:58PM 38.0639 -121.0067 50° Northeast 516 594 32,800 2,160 Climbing Oakland Center
03:59PM 38.1147 -120.8400 69° East 510 587 35,400 2,340 Climbing Oakland Center
04:00PM 38.1550 -120.6686 73° East 511 588 37,700 1,980 Climbing Oakland Center
04:01PM 38.1953 -120.4989 73° East 507 583 39,500 1,860 Climbing Oakland Center
04:02PM 38.2456 -120.2953 72° East 505 581 41,600 1,440 Climbing Oakland Center
04:03PM 38.2858 -120.1272 73° East 501 577 42,500 1,140 Climbing Oakland Center
04:04PM 38.3233 -119.9578 74° East 499 574 44,000 1,020 Climbing Oakland Center
04:05PM 38.3614 -119.7892 74° East 497 572 44,700 480 Climbing Oakland Center
04:06PM 38.4008 -119.6197 73° East 503 579 45,000 120 Climbing Oakland Center
04:07PM 38.4439 -119.4297 74° East 515 593 45,000  Level Oakland Center
04:08PM 38.4836 -119.2558 74° East 515 593 45,000  Level Oakland Center
04:09PM 38.5122 -119.0797 78° East 510 587 45,000  Level Oakland Center
04:10PM 38.5306 -118.8989 83° East 514 592 45,000  Level Oakland Center
04:12PM 38.5489 -118.7183 83° East 515 593 45,000  Level Oakland Center
04:13PM 38.5703 -118.5050 83° East 508 585 45,000  Level Oakland Center
04:14PM 38.5869 -118.3247 83° East 513 590 45,000  Level Oakland Center
04:15PM 38.6033 -118.1464 83° East 510 587 45,000  Level Oakland Center
04:16PM 38.6214 -117.9667 83° East 511 588 45,000  Level Oakland Center
04:17PM 38.6369 -117.7836 84° East 514 592 45,000  Level Oakland Center
04:18PM 38.6531 -117.6031 83° East 510 587 45,000  Level Oakland Center
04:19PM 38.6681 -117.4239 84° East 505 581 45,000  Level Oakland Center
04:19PM 38.6817 -117.2797 83° East 504 580 45,000  Level Salt Lake Center
04:21PM 38.7092 -117.0992 79° East 511 588 45,000  Level Salt Lake Center
04:22PM 38.7361 -116.9192 79° East 511 588 45,000  Level Salt Lake Center
04:23PM 38.7675 -116.7036 79° East 511 588 45,000  Level Salt Lake Center
04:24PM 38.7936 -116.5244 79° East 510 587 45,000  Level Salt Lake Center
04:25PM 38.8194 -116.3464 79° East 508 585 45,000  Level Salt Lake Center
04:26PM 38.8442 -116.1678 80° East 508 585 45,000  Level Salt Lake Center
04:27PM 38.8689 -115.9872 80° East 512 589 45,000  Level Salt Lake Center
04:28PM 38.8933 -115.8094 80° East 507 583 45,000  Level Salt Lake Center
04:29PM 38.9181 -115.6303 80° East 509 586 45,000  Level Salt Lake Center
04:30PM 38.9425 -115.4522 80° East 508 585 45,000  Level Salt Lake Center
04:31PM 38.9728 -115.2344 80° East 512 589 45,000  Level Salt Lake Center
04:32PM 38.9969 -115.0547 80° East 511 588 45,000  Level Salt Lake Center
04:33PM 39.0189 -114.8764 81° East 508 585 45,000  Level Salt Lake Center
04:34PM 39.0419 -114.6961 81° East 511 588 45,000  Level Salt Lake Center
04:35PM 39.0669 -114.5142 80° East 515 593 45,000  Level Salt Lake Center
04:36PM 39.0889 -114.3328 81° East 513 590 45,000  Level Salt Lake Center
04:37PM 39.1111 -114.1533 81° East 511 588 45,000  Level Salt Lake Center
04:38PM 39.1386 -113.9356 81° East 515 593 45,000  Level Salt Lake Center
04:39PM 39.1611 -113.7539 81° East 513 590 45,000  Level Salt Lake Center
04:40PM 39.1817 -113.5736 82° East 510 587 45,000  Level Salt Lake Center
04:41PM 39.2025 -113.3911 82° East 513 590 45,000  Level Salt Lake Center
04:42PM 39.2236 -113.2103 81° East 511 588 45,000  Level Salt Lake Center
04:43PM 39.2444 -113.0289 82° East 511 588 45,000  Level Salt Lake Center
04:44PM 39.2650 -112.8483 82° East 509 586 45,000  Level Salt Lake Center
04:45PM 39.2878 -112.6497 82° East 507 583 45,000  Level Salt Lake Center
04:46PM 39.3103 -112.4706 81° East 506 582 45,000  Level Salt Lake Center
04:47PM 39.3428 -112.2936 77° East 510 587 45,000  Level Salt Lake Center
04:48PM 39.3767 -112.1164 76° East 512 589 45,000  Level Salt Lake Center
04:49PM 39.4089 -111.9381 77° East 513 590 45,000  Level Salt Lake Center
04:50PM 39.4472 -111.7228 77° East 514 592 45,000  Level Salt Lake Center
04:51PM 39.4803 -111.5453 76° East 511 588 45,000  Level Salt Lake Center
04:52PM 39.5119 -111.3667 77° East 512 589 45,000  Level Salt Lake Center
04:53PM 39.5433 -111.1906 77° East 510 587 45,000  Level Salt Lake Center
04:54PM 39.5775 -110.9914 77° East 508 585 45,000  Level Salt Lake Center
04:56PM 39.6078 -110.8183 77° East 515 593 45,000  Level Salt Lake Center
04:57PM 39.6417 -110.6194 77° East 507 583 45,000  Level Salt Lake Center
04:58PM 39.6706 -110.4475 78° East 508 585 45,000  Level Salt Lake Center
04:59PM 39.7056 -110.2433 77° East 517 595 45,000  Level Salt Lake Center
05:00PM 39.7350 -110.0714 77° East 512 589 45,000  Level Salt Lake Center
05:01PM 39.7622 -109.9008 78° East 507 583 45,000  Level Salt Lake Center
05:02PM 39.7936 -109.7025 78° East 503 579 45,000  Level Salt Lake Center
05:03PM 39.8258 -109.4992 78° East 512 589 45,000  Level Denver Center
05:04PM 39.8528 -109.3286 78° East 505 581 45,000  Level Denver Center
05:05PM 39.8853 -109.1294 78° East 500 575 45,000  Level Denver Center
05:06PM 39.9078 -108.9889 78° East 497 572 45,000  Level Salt Lake Center
05:07PM 39.9386 -108.7867 79° East 504 580 45,000  Level Salt Lake Center
05:08PM 39.9653 -108.6133 79° East 504 580 45,000  Level Salt Lake Center
05:09PM 39.9956 -108.4083 79° East 507 583 45,000  Level Denver Center
05:10PM 40.0253 -108.2072 79° East 504 580 45,000  Level Denver Center
05:11PM 40.0506 -108.0336 79° East 506 582 45,000  Level Denver Center
05:12PM 40.0875 -107.8333 76° East 505 581 45,000  Level Denver Center
05:13PM 40.1278 -107.6614 73° East 513 590 45,000  Level Denver Center
05:14PM 40.1747 -107.4581 73° East 523 602 45,000  Level Denver Center
05:15PM 40.2133 -107.2833 74° East 524 603 45,000  Level Denver Center
05:16PM 40.2525 -107.1100 73° East 519 597 45,000  Level Denver Center
05:17PM 40.2994 -106.9036 73° East 529 609 45,000  Level Denver Center
05:18PM 40.3417 -106.7214 73° East 524 603 45,000  Level Denver Center
05:19PM 40.3825 -106.5358 74° East 525 604 45,000  Level Denver Center
05:20PM 40.4225 -106.3464 74° East 526 605 45,000  Level Denver Center
05:21PM 40.4678 -106.1414 74° East 524 603 45,000  Level Denver Center
05:22PM 40.5033 -105.9794 74° East 526 605 45,000  Level Denver Center
05:23PM 40.5411 -105.7933 75° East 525 604 45,000  Level Denver Center
05:24PM 40.5861 -105.5706 75° East 526 605 45,000 300 Level Denver Center
05:26PM 40.6242 -105.3897 74° East 521 600 45,700 960 Climbing Denver Center
05:27PM 40.6586 -105.2164 75° East 515 593 47,000 600 Climbing Denver Center
05:28PM 40.7006 -105.0272 74° East 499 574 47,000  Level Denver Center
05:29PM 40.7369 -104.8492 75° East 504 580 47,000 -120 Level Denver Center
05:30PM 40.7747 -104.6578 75° East 496 571 46,800 -360 Descending Denver Center
05:31PM 40.8072 -104.4939 75° East 486 559 46,300 -540 Descending Denver Center
05:32PM 40.8436 -104.3061 76° East 477 549 45,800 -480 Descending Denver Center
05:33PM 40.8781 -104.1339 75° East 498 573 45,400 -420 Descending Denver Center
05:34PM 40.9172 -103.9328 75° East 507 583 45,000 -240 Descending Denver Center
05:35PM 40.9492 -103.7619 76° East 503 579 45,000  Level Denver Center
05:36PM 40.9883 -103.5611 75° East 505 581 45,000  Level Denver Center
05:37PM 41.0208 -103.3825 76° East 518 596 45,000  Level Denver Center
05:38PM 41.0606 -103.1778 76° East 517 595 45,000  Level Denver Center
05:39PM 41.0917 -103.0042 77° East 511 588 45,000  Level Denver Center
05:40PM 41.1083 -102.8133 83° East 507 583 45,000  Level Denver Center
05:41PM 41.1258 -102.6033 84° East 512 589 45,000  Level Denver Center
05:42PM 41.1397 -102.4228 84° East 513 590 45,000  Level Denver Center
05:43PM 41.1525 -102.2428 85° East 513 590 45,000  Level Denver Center
05:44PM 41.1689 -102.0333 84° East 512 589 45,000  Level Denver Center
05:45PM 41.1819 -101.8533 84° East 511 588 45,000  Level Denver Center
05:46PM 41.1964 -101.6436 85° East 511 588 45,000  Level Denver Center
05:47PM 41.2083 -101.4617 85° East 515 593 45,000  Level Denver Center
05:48PM 41.2236 -101.2506 84° East 513 590 45,000  Level Denver Center
05:49PM 41.2350 -101.0717 85° East 508 585 45,000  Level Denver Center
05:50PM 41.2489 -100.8583 85° East 513 590 45,000  Level Denver Center
05:51PM 41.2597 -100.6778 85° East 509 586 45,000  Level Denver Center
05:52PM 41.2708 -100.4972 85° East 509 586 45,000  Level Denver Center
05:53PM 41.2831 -100.2881 85° East 507 583 45,000  Level Denver Center
05:54PM 41.2922 -100.1092 86° East 506 582 45,000  Level Denver Center
05:55PM 41.3042 -99.9019 86° East 503 579 45,000  Level Denver Center
05:57PM 41.3131 -99.7261 86° East 500 575 45,000  Level Denver Center
05:57PM 41.3231 -99.5639 85° East 499 574 45,000  Level Minneapolis Center
05:58PM 41.3317 -99.3789 86° East 500 575 45,000  Level Minneapolis Center
06:00PM 41.3425 -99.1469 86° East 498 573 45,000  Level Minneapolis Center
06:01PM 41.3506 -98.9608 87° East 493 567 45,000  Level Minneapolis Center
06:02PM 41.3572 -98.7789 87° East 492 566 45,000  Level Minneapolis Center
06:03PM 41.3633 -98.5983 87° East 491 565 45,000  Level Minneapolis Center
06:04PM 41.3739 -98.4211 85° East 494 568 45,000  Level Minneapolis Center
06:05PM 41.3808 -98.2375 87° East 495 570 45,000  Level Minneapolis Center
06:06PM 41.3853 -98.0539 88° East 488 562 45,000  Level Minneapolis Center
06:07PM 41.3922 -97.8381 87° East 487 560 45,000  Level Minneapolis Center
06:08PM 41.3972 -97.6556 88° East 492 566 45,000  Level Minneapolis Center
06:09PM 41.4022 -97.4733 88° East 494 568 45,000  Level Minneapolis Center
06:10PM 41.4058 -97.2928 88° East 490 564 45,000  Level Minneapolis Center
06:11PM 41.4100 -97.1128 88° East 488 562 45,000  Level Minneapolis Center
06:12PM 41.4139 -96.9314 88° East 489 563 45,000  Level Minneapolis Center
06:13PM 41.4183 -96.7517 88° East 487 560 45,000  Level Minneapolis Center
06:14PM 41.4233 -96.5342 88° East 490 564 45,000  Level Minneapolis Center
06:15PM 41.4261 -96.3525 89° East 489 563 45,000  Level Minneapolis Center
06:16PM 41.4267 -96.1692 90° East 501 577 45,000  Level Minneapolis Center
06:17PM 41.4300 -95.9847 89° East 499 574 45,000  Level Minneapolis Center
06:18PM 41.4319 -95.7992 89° East 500 575 45,000  Level Minneapolis Center
06:19PM 41.4339 -95.5972 89° East 499 574 45,000  Level Minneapolis Center
06:20PM 41.4358 -95.4122 89° East 499 574 45,000  Level Minneapolis Center
06:21PM 41.4389 -95.2269 89° East 500 575 45,000  Level Minneapolis Center
06:22PM 41.4389 -95.0425 90° East 499 574 45,000  Level Minneapolis Center
06:23PM 41.4411 -94.8175 89° East 504 580 45,000  Level Minneapolis Center
06:24PM 41.4389 -94.6300 91° East 507 583 45,000  Level Minneapolis Center
06:25PM 41.4394 -94.4419 90° East 508 585 45,000  Level Minneapolis Center
06:26PM 41.4389 -94.2533 90° East 510 587 45,000  Level Minneapolis Center
06:28PM 41.4372 -94.0747 91° East 505 581 45,000  Level Minneapolis Center
06:29PM 41.4367 -93.8483 90° East 510 587 45,000  Level Minneapolis Center
06:30PM 41.4369 -93.6597 90° East 512 589 45,000  Level Minneapolis Center
06:31PM 41.4456 -93.4714 86° East 512 589 45,000  Level Minneapolis Center
06:32PM 41.4547 -93.2833 86° East 513 590 45,000  Level Minneapolis Center
06:33PM 41.4631 -93.0931 87° East 515 593 45,000  Level Minneapolis Center
06:34PM 41.4706 -92.9019 87° East 517 595 45,000  Level Minneapolis Center
06:35PM 41.4808 -92.6750 86° East 515 593 45,000  Level Minneapolis Center
06:36PM 41.4878 -92.4869 87° East 512 589 45,000  Level Minneapolis Center
06:36PM 41.4894 -92.4492 87° East 509 586 45,000  Level Chicago Center
06:37PM 41.4975 -92.2514 87° East 509 586 45,000  Level Chicago Center
06:38PM 41.5036 -92.0647 87° East 511 588 45,000  Level Chicago Center
06:39PM 41.5122 -91.8406 87° East 511 588 45,000  Level Chicago Center
06:40PM 41.5175 -91.6539 88° East 511 588 45,000  Level Chicago Center
06:42PM 41.5169 -91.4247 90° East  Level FlightAware Approximate
06:45PM 41.5372 -90.6719 90° East 519 597 45,000  Level Chicago Center
06:46PM 41.5394 -90.4544 89° East 519 597 45,000  Level Chicago Center
06:47PM 41.5408 -90.2633 89° East 516 594 45,000  Level Chicago Center
06:48PM 41.5433 -90.0722 89° East 515 593 45,000  Level Chicago Center
06:49PM 41.5306 -90.1749 89° East  Level FlightAware Approximate
06:50PM 41.5322 -89.9964 89° East  Level FlightAware Approximate
06:50PM 41.5458 -89.8792 89° East 518 596 45,000  Level Chicago Center
06:51PM 41.5334 -89.8178 90° East  Level FlightAware Approximate
06:51PM 41.5475 -89.6858 89° East 513 590 45,000  Level Chicago Center
06:52PM 41.5469 -89.4994 90° East 508 585 45,000  Level Chicago Center
06:53PM 41.5469 -89.3142 90° East 504 580 45,000  Level Chicago Center
06:54PM 41.5483 -89.0928 89° East 501 577 45,000  Level Chicago Center
06:55PM 41.5478 -88.9069 90° East 501 577 45,000  Level Chicago Center
06:56PM 41.5483 -88.7214 90° East 501 577 45,000  Level Chicago Center
06:57PM 41.5481 -88.5353 90° East 502 578 45,000  Level Chicago Center
06:58PM 41.5469 -88.3472 90° East 505 581 45,000  Level Chicago Center
06:59PM 41.5467 -88.1564 90° East 508 585 45,000  Level Chicago Center
07:00PM 41.5464 -87.9222 90° East 511 588 45,000  Level Chicago Center
07:01PM 41.5458 -87.7292 90° East 517 595 45,000  Level Chicago Center
07:02PM 41.5444 -87.5400 90° East 512 589 45,000  Level Chicago Center
07:03PM 41.5425 -87.3506 91° East 511 588 45,000  Level Chicago Center
07:04PM 41.5414 -87.1597 90° East 515 593 45,000  Level Chicago Center
07:05PM 41.5383 -86.9686 91° East 518 596 45,000  Level Chicago Center
07:06PM 41.5372 -86.7433 90° East 507 583 45,000  Level Chicago Center
07:07PM 41.5347 -86.5778 91° East 504 580 45,000  Level Chicago Center
07:08PM 41.5314 -86.3881 91° East 512 589 45,000  Level Chicago Center
07:09PM 41.5275 -86.1625 91° East 510 587 45,000  Level Chicago Center
07:10PM 41.5236 -85.9772 92° East 502 578 45,000  Level Chicago Center
07:11PM 41.5175 -85.7936 92° East 500 575 45,000  Level Chicago Center
07:12PM 41.5119 -85.6100 92° East 500 575 45,000  Level Chicago Center
07:13PM 41.5050 -85.3956 92° East 499 574 45,000  Level Chicago Center
07:14PM 41.5000 -85.2081 92° East 512 589 45,000  Level Chicago Center
07:15PM 41.4939 -85.0233 92° East 508 585 45,000  Level Chicago Center
07:16PM 41.4875 -84.8372 93° East 505 581 45,000  Level Chicago Center
07:17PM 41.4808 -84.6519 93° East 505 581 45,000  Level Chicago Center
07:19PM 41.4719 -84.4300 93° East 502 578 45,000  Level Chicago Center
07:20PM 41.4664 -84.2428 92° East 506 582 45,000  Level Chicago Center
07:20PM 41.4761 -84.1142 84° East 498 573 45,000  Level Cleveland Center
07:21PM 41.4919 -83.9294 83° East 498 573 45,000  Level Cleveland Center
07:22PM 41.5097 -83.7444 83° East 498 573 45,000  Level Cleveland Center
07:23PM 41.5231 -83.5592 84° East 498 573 45,000  Level Cleveland Center
07:24PM 41.5403 -83.3714 83° East 498 573 45,000  Level Cleveland Center
07:25PM 41.5550 -83.1889 84° East 498 573 45,000  Level Cleveland Center
07:26PM 41.5717 -83.0033 83° East 498 573 45,000  Level Cleveland Center
07:27PM 41.5858 -82.8181 84° East 498 573 45,000  Level Cleveland Center
07:28PM 41.6017 -82.6353 83° East 498 573 45,000  Level Cleveland Center
07:29PM 41.6153 -82.4494 84° East 498 573 45,000  Level Cleveland Center
07:30PM 41.6311 -82.2417 84° East 503 579 45,000  Level Cleveland Center
07:31PM 41.6442 -82.0503 85° East 503 579 45,000  Level Cleveland Center
07:32PM 41.6547 -81.8614 86° East 503 579 45,000  Level Cleveland Center
07:33PM 41.6692 -81.6783 84° East 503 579 45,000  Level Cleveland Center
07:34PM 41.6811 -81.4922 85° East 496 571 45,000  Level Cleveland Center
07:35PM 41.6928 -81.3283 85° East 496 571 45,000  Level Cleveland Center
07:36PM 41.7044 -81.1394 85° East 501 577 45,000  Level Cleveland Center
07:37PM 41.7175 -80.9503 85° East 501 577 45,000  Level Cleveland Center
07:38PM 41.7283 -80.7639 85° East 496 571 45,000  Level Cleveland Center
07:39PM 41.7306 -80.5803 89° East 496 571 45,000  Level Cleveland Center
07:40PM 41.7306 -80.3744 90° East 496 571 45,000  Level Cleveland Center
07:41PM 41.7300 -80.1853 90° East 496 571 45,000  Level Cleveland Center
07:42PM 41.7292 -80.0017 90° East 491 565 45,000  Level Cleveland Center
07:43PM 41.7281 -79.8181 90° East 491 565 45,000  Level Cleveland Center
07:44PM 41.7267 -79.6289 91° East 501 577 45,000  Level Cleveland Center
07:45PM 41.7272 -79.4481 90° East 491 565 45,000  Level Cleveland Center
07:46PM 41.7236 -79.3006 92° East 491 565 45,000  Level Cleveland Center
07:47PM 41.7233 -79.1031 90° East 486 559 45,000  Level Cleveland Center
07:48PM 41.7206 -78.9000 91° East 491 565 45,000  Level Cleveland Center
07:49PM 41.7156 -78.7222 92° East 491 565 45,000  Level Cleveland Center
07:50PM 41.7147 -78.5414 90° East 486 559 45,000  Level Cleveland Center
07:51PM 41.7092 -78.3581 92° East 486 559 45,000 -1,620 Level Cleveland Center
07:53PM 41.7022 -78.0197 91° East 482 555 40,400 -2,520 Descending New York Center
07:54PM 41.6967 -77.8358 92° East 487 560 37,800 -2,580 Descending New York Center
07:55PM 41.6950 -77.6522 91° East 487 560 35,200 -1,440 Descending New York Center
07:56PM 41.6886 -77.4708 93° East 492 566 35,000 -660 Descending New York Center
07:57PM 41.6819 -77.2897 93° East 492 566 34,000 -1,200 Descending New York Center
07:58PM 41.6669 -77.1078 96° East 492 566 32,700 -1,320 Descending New York Center
07:59PM 41.6214 -76.9422 110° East 467 537 31,400 -1,380 Descending New York Center
08:00PM 41.5794 -76.7831 109° East 467 537 30,000 -1,440 Descending New York Center
08:01PM 41.5408 -76.6439 110° East 460 529 28,500 -1,620 Descending New York Center
08:02PM 41.4981 -76.4933 111° Southeast 445 512 26,900 -1,680 Descending New York Center
08:03PM 41.4592 -76.3489 110° East 431 496 25,300 -1,620 Descending New York Center
08:04PM 41.4219 -76.2075 109° East 415 478 23,700 -1,560 Descending New York Center
08:05PM 41.3767 -76.0600 112° Southeast 397 457 22,200 -1,500 Descending New York Center
08:06PM 41.3425 -75.9328 110° East 379 436 20,700 -1,920 Descending New York Center
08:07PM 41.3044 -75.8031 111° Southeast 379 436 18,300 -2,100 Descending New York Center
08:08PM 41.2681 -75.6789 111° Southeast 374 430 16,600 -1,620 Descending New York Center
08:09PM 41.2272 -75.5544 114° Southeast 374 430 15,200 -1,380 Descending New York Center
08:10PM 41.1864 -75.4303 114° Southeast 359 413 13,800 -1,740 Descending New York Center
08:11PM 41.1528 -75.3286 114° Southeast 351 404 11,800 -1,920 Descending New York Center
08:12PM 41.1172 -75.2217 114° Southeast 333 383 10,000 -1,800 Descending New York Center
08:13PM 41.0817 -75.1147 114° Southeast 297 342 8,200 -1,680 Descending New York Center
08:14PM 41.0497 -75.0219 115° Southeast 283 326 6,700 -1,140 Descending New York Center
08:15PM 41.0175 -74.9319 115° Southeast 272 313 6,000 -360 Descending New York Center
08:16PM 40.9869 -74.8503 116° Southeast 272 313 6,000 -300 Level New York Center
08:17PM 40.9294 -74.7644 132° Southeast 278 320 5,400 -900 Descending New York Center
08:18PM 40.8775 -74.6956 135° Southeast 292 336 4,200 -1,380 Descending New York Center
08:19PM 40.8333 -74.6167 126° Southeast 291 335 3,000 -720 Descending New York TRACON
08:20PM 40.8000 -74.5333 118° Southeast 286 329 3,000  Level New York TRACON
08:21PM 40.7667 -74.4500 118° Southeast 281 323 3,000 -540 Level New York TRACON
08:22PM 40.7333 -74.3500 114° Southeast 277 319 2,000 -540 Descending New York TRACON
08:23PM 40.7333 -74.2667 90° East 213 245 2,000  Level New York TRACON
08:24PM 40.7500 -74.2000 72° East 182 209 2,000 -300 Level New York TRACON
08:25PM 40.7833 -74.1667 37° Northeast 149 171 1,500 -480 Descending New York TRACON
08:26PM 40.8167 -74.1333 37° Northeast 146 168 1,200 -540 Descending New York TRACON
08:27PM 40.8333 -74.0833 66° East 118 136 500 -720 Descending New York TRACON
08:29PM 40.8500 -74.0500 78° East  Level FlightAware Approximate
08:36PM 40.8501 -74.0608 78° East  Level Estimated